Time;durP1;ratioP1;P1;durP2;ratioP2;P2;SDS_P1;SDS_P2;PMS_P1;PMS_P2;Temp;Humidity;BMP_temperature;BMP_pressure;BME280_temperature;BME280_humidity;BME280_pressure;Samples;Min_cycle;Max_cycle;Signal;HPM_P1;HPM_P2
2022/08/13 00:00:14;;;;;;;7.27;2.90;;;23.60;1.00;;;;;;5098097;28;20202;-81
2022/08/13 00:02:42;;;;;;;3.57;2.87;;;23.60;1.00;;;;;;5079339;28;20456;-81
2022/08/13 00:05:09;;;;;;;9.30;2.80;;;23.50;1.00;;;;;;5095340;28;20504;-81
2022/08/13 00:07:35;;;;;;;4.67;3.23;;;23.50;1.00;;;;;;5099783;28;20435;-79
2022/08/13 00:10:03;;;;;;;5.73;2.70;;;23.50;1.00;;;;;;5108120;28;20465;-80
2022/08/13 00:15:43;;;;;;;3.90;3.07;;;23.50;1.00;;;;;;5103347;28;20485;-80
2022/08/13 00:18:11;;;;;;;4.47;3.20;;;23.40;1.00;;;;;;5093331;28;20803;-78
2022/08/13 00:20:47;;;;;;;3.83;2.50;;;23.30;1.00;;;;;;5102160;28;20570;-78
2022/08/13 00:23:14;;;;;;;3.13;2.67;;;23.20;1.00;;;;;;5074316;28;20427;-81
2022/08/13 00:25:40;;;;;;;11.10;3.73;;;23.20;1.00;;;;;;5093350;28;20424;-81
2022/08/13 00:28:06;;;;;;;4.07;3.10;;;23.20;1.00;;;;;;5104175;28;20463;-77
2022/08/13 00:30:35;;;;;;;5.93;3.00;;;23.20;1.00;;;;;;5095250;28;20463;-81
2022/08/13 00:33:11;;;;;;;5.60;3.03;;;23.10;1.00;;;;;;5105957;28;20176;-79
2022/08/13 00:35:37;;;;;;;3.33;2.70;;;23.10;1.00;;;;;;5097707;28;20512;-81
2022/08/13 00:38:05;;;;;;;5.07;2.60;;;23.00;1.00;;;;;;5107829;28;20680;-80
2022/08/13 00:40:52;;;;;;;5.30;3.10;;;23.00;1.00;;;;;;5099270;28;20185;-81
2022/08/13 00:43:18;;;;;;;7.23;4.03;;;22.90;1.00;;;;;;5110770;28;20434;-80
2022/08/13 00:45:44;;;;;;;7.00;3.20;;;22.90;1.00;;;;;;5115829;22;20967;-83
2022/08/13 00:50:57;;;;;;;3.10;2.60;;;22.90;1.00;;;;;;5073262;28;20330;-84
2022/08/13 00:53:24;;;;;;;7.33;3.30;;;22.80;1.00;;;;;;5072612;28;20435;-84
2022/08/13 00:55:55;;;;;;;4.07;2.80;;;22.80;1.00;;;;;;5065356;28;20541;-83
2022/08/13 00:58:22;;;;;;;6.07;3.93;;;22.80;1.00;;;;;;5049130;28;20436;-84
2022/08/13 01:00:51;;;;;;;4.93;3.10;;;22.80;1.00;;;;;;5049600;28;20449;-84
2022/08/13 01:03:18;;;;;;;3.40;2.80;;;22.80;1.00;;;;;;5050099;28;20445;-85
2022/08/13 01:05:45;;;;;;;9.87;4.00;;;22.80;1.00;;;;;;5049651;28;20451;-85
2022/08/13 01:08:16;;;;;;;4.97;3.20;;;22.80;1.00;;;;;;5049366;28;20441;-85
2022/08/13 01:10:42;;;;;;;5.13;3.03;;;22.80;1.00;;;;;;5050636;28;20467;-84
2022/08/13 01:13:11;;;;;;;3.37;2.87;;;22.70;1.00;;;;;;5050570;28;20988;-85
2022/08/13 01:15:39;;;;;;;3.00;2.70;;;22.70;1.00;;;;;;5053839;28;20484;-84
2022/08/13 01:18:06;;;;;;;5.20;3.10;;;22.60;1.00;;;;;;5050525;28;20585;-85
2022/08/13 01:20:37;;;;;;;6.47;3.00;;;22.60;1.00;;;;;;5050877;28;20503;-84
2022/08/13 01:23:04;;;;;;;4.73;3.80;;;22.50;1.00;;;;;;5055494;28;20543;-85
2022/08/13 01:25:31;;;;;;;2.90;2.70;;;22.40;1.00;;;;;;5050818;28;20510;-85
2022/08/13 01:27:57;;;;;;;4.33;2.87;;;22.30;1.00;;;;;;5054822;28;20442;-84
2022/08/13 01:30:23;;;;;;;6.30;3.20;;;22.30;1.00;;;;;;5059366;28;20842;-84
2022/08/13 01:32:50;;;;;;;4.13;3.37;;;22.20;1.00;;;;;;5054983;28;20289;-85
2022/08/13 01:35:16;;;;;;;4.10;2.90;;;22.10;1.00;;;;;;5049455;28;20479;-84
2022/08/13 01:37:43;;;;;;;5.47;2.60;;;22.20;1.00;;;;;;5048373;28;20439;-83
2022/08/13 01:40:09;;;;;;;6.07;3.03;;;22.10;1.00;;;;;;5049367;28;20438;-85
2022/08/13 01:42:44;;;;;;;5.53;2.80;;;22.10;1.00;;;;;;5050185;28;20439;-85
2022/08/13 01:45:12;;;;;;;4.33;3.10;;;22.00;1.00;;;;;;5054466;28;20430;-84
2022/08/13 01:50:29;;;;;;;3.60;2.90;;;22.00;1.00;;;;;;5048500;28;20625;-85
2022/08/13 01:53:04;;;;;;;5.90;2.40;;;22.00;1.00;;;;;;5049181;28;20466;-84
2022/08/13 01:55:41;;;;;;;5.47;2.93;;;22.10;1.00;;;;;;5051367;28;20448;-83
2022/08/13 01:58:09;;;;;;;5.13;3.10;;;22.00;1.00;;;;;;5050503;28;20435;-85
2022/08/13 02:00:36;;;;;;;3.50;2.70;;;22.00;1.00;;;;;;5050027;28;20447;-84
2022/08/13 02:03:04;;;;;;;4.30;3.47;;;21.90;1.00;;;;;;5049175;28;20446;-84
2022/08/13 02:05:32;;;;;;;4.17;2.73;;;21.90;1.00;;;;;;5052727;28;20455;-84
2022/08/13 02:07:58;;;;;;;2.80;2.60;;;21.90;1.00;;;;;;5050245;28;20443;-86
2022/08/13 02:10:24;;;;;;;4.80;3.07;;;21.90;1.00;;;;;;5051378;28;20463;-85
2022/08/13 02:12:50;;;;;;;3.47;3.20;;;21.80;1.00;;;;;;5048794;28;20443;-85
2022/08/13 02:15:16;;;;;;;3.90;3.20;;;21.80;1.00;;;;;;5051096;28;20443;-85
2022/08/13 02:17:42;;;;;;;9.73;3.33;;;21.70;1.00;;;;;;5047019;28;20188;-83
2022/08/13 02:20:12;;;;;;;4.77;3.13;;;21.70;1.00;;;;;;5051686;28;20434;-84
2022/08/13 02:22:40;;;;;;;4.07;3.10;;;21.60;1.00;;;;;;5048963;28;20193;-84
2022/08/13 02:25:06;;;;;;;3.33;3.00;;;21.60;1.00;;;;;;5052830;28;20435;-84
2022/08/13 02:27:32;;;;;;;4.50;2.93;;;21.60;1.00;;;;;;5047866;28;20470;-82
2022/08/13 02:29:59;;;;;;;4.10;3.10;;;21.60;1.00;;;;;;5048894;28;20975;-85
2022/08/13 02:32:25;;;;;;;9.30;3.57;;;21.60;1.00;;;;;;5051148;28;20826;-85
2022/08/13 02:34:52;;;;;;;6.40;3.23;;;21.60;1.00;;;;;;5050038;28;20484;-86
2022/08/13 02:37:23;;;;;;;8.67;3.10;;;21.50;1.00;;;;;;5048990;28;20458;-84
2022/08/13 02:39:50;;;;;;;3.27;2.97;;;21.50;1.00;;;;;;5047084;28;20832;-84
2022/08/13 02:42:16;;;;;;;4.60;3.10;;;21.50;1.00;;;;;;5049898;28;20534;-85
2022/08/13 02:44:47;;;;;;;7.17;3.93;;;21.50;1.00;;;;;;5051206;28;20518;-82
2022/08/13 02:47:13;;;;;;;4.33;3.30;;;21.40;1.00;;;;;;5049401;28;20467;-85
2022/08/13 02:49:40;;;;;;;5.67;3.70;;;21.40;1.00;;;;;;5055314;28;20606;-84
2022/08/13 02:52:08;;;;;;;5.07;3.90;;;21.40;1.00;;;;;;5052873;28;20492;-85
2022/08/13 02:54:40;;;;;;;4.20;3.17;;;21.30;1.00;;;;;;5051535;28;20438;-82
2022/08/13 02:57:06;;;;;;;6.70;3.80;;;21.40;1.00;;;;;;5052281;28;20454;-85
2022/08/13 02:59:32;;;;;;;4.30;3.70;;;21.30;1.00;;;;;;5054395;28;20443;-85
2022/08/13 03:01:59;;;;;;;4.10;3.80;;;21.30;1.00;;;;;;5053167;28;20533;-84
2022/08/13 03:04:25;;;;;;;4.70;3.60;;;21.30;1.00;;;;;;5053340;28;20192;-83
2022/08/13 03:06:51;;;;;;;4.60;3.83;;;21.20;1.00;;;;;;5051948;28;21005;-87
2022/08/13 03:09:20;;;;;;;4.43;4.03;;;21.20;1.00;;;;;;5057840;28;20215;-85
2022/08/13 03:11:47;;;;;;;10.70;4.33;;;21.00;1.00;;;;;;5053932;28;20442;-85
2022/08/13 03:14:13;;;;;;;9.67;4.37;;;21.00;1.00;;;;;;5054606;28;20514;-83
2022/08/13 03:16:39;;;;;;;5.87;4.00;;;20.90;1.00;;;;;;5051351;28;20455;-84
2022/08/13 03:19:05;;;;;;;13.83;4.60;;;20.90;1.00;;;;;;5053030;28;20430;-85
2022/08/13 03:21:37;;;;;;;7.20;3.57;;;20.90;1.00;;;;;;5053822;28;20851;-84
2022/08/13 03:24:04;;;;;;;5.53;3.70;;;20.80;1.00;;;;;;5051977;28;20435;-84
2022/08/13 03:26:31;;;;;;;6.33;4.40;;;20.80;1.00;;;;;;5056900;28;20466;-84
2022/08/13 03:28:58;;;;;;;11.07;3.90;;;20.80;1.00;;;;;;5052149;28;20894;-85
2022/08/13 03:31:24;;;;;;;4.53;4.07;;;20.80;1.00;;;;;;5053909;28;20996;-84
2022/08/13 03:33:50;;;;;;;6.20;3.93;;;20.80;1.00;;;;;;5050738;28;20446;-85
2022/08/13 03:36:16;;;;;;;6.87;4.87;;;20.80;1.00;;;;;;5052112;28;20215;-85
2022/08/13 03:38:42;;;;;;;4.77;4.13;;;20.80;1.00;;;;;;5054547;28;20446;-85
2022/08/13 03:41:14;;;;;;;5.37;4.07;;;20.70;1.00;;;;;;5053463;28;20439;-84
2022/08/13 03:43:45;;;;;;;4.53;4.10;;;20.70;1.00;;;;;;5056398;28;20434;-83
2022/08/13 03:46:20;;;;;;;8.17;4.10;;;20.70;1.00;;;;;;5050469;28;20524;-85
2022/08/13 03:48:47;;;;;;;4.00;3.63;;;20.70;1.00;;;;;;5052364;28;20606;-85
2022/08/13 03:51:15;;;;;;;5.60;3.60;;;20.60;1.00;;;;;;5052483;28;20561;-85
2022/08/13 03:53:41;;;;;;;7.40;4.07;;;20.60;1.00;;;;;;5054384;28;20434;-84
2022/08/13 03:56:08;;;;;;;5.43;4.50;;;20.60;1.00;;;;;;5052106;28;20472;-85
2022/08/13 03:58:34;;;;;;;4.87;3.77;;;20.50;1.00;;;;;;5054448;28;20471;-85
2022/08/13 04:01:01;;;;;;;6.57;3.60;;;20.40;1.00;;;;;;5051817;28;20575;-83
2022/08/13 04:03:29;;;;;;;4.70;4.20;;;20.40;1.00;;;;;;5057585;28;20196;-83
2022/08/13 04:05:59;;;;;;;6.00;3.60;;;20.30;1.00;;;;;;5057912;28;20467;-85
2022/08/13 04:08:30;;;;;;;6.07;5.00;;;20.30;1.00;;;;;;5060092;28;20433;-85
2022/08/13 04:10:57;;;;;;;4.70;4.07;;;20.20;1.00;;;;;;5051783;28;20473;-84
2022/08/13 04:13:24;;;;;;;6.20;4.20;;;20.20;1.00;;;;;;5056683;28;20476;-85
2022/08/13 04:15:50;;;;;;;5.07;4.17;;;20.20;1.00;;;;;;5052931;28;20460;-83
2022/08/13 04:18:17;;;;;;;4.90;3.90;;;20.20;1.00;;;;;;5058753;28;20468;-84
2022/08/13 04:20:52;;;;;;;5.00;4.20;;;20.10;1.00;;;;;;5051115;28;20436;-83
2022/08/13 04:23:19;;;;;;;7.37;4.07;;;20.10;1.00;;;;;;5052369;28;20447;-84
2022/08/13 04:25:46;;;;;;;4.47;4.07;;;20.10;1.00;;;;;;5051475;28;20535;-84
2022/08/13 04:28:14;;;;;;;4.60;4.07;;;20.00;1.00;;;;;;5054169;28;20952;-85
2022/08/13 04:30:41;;;;;;;5.60;5.00;;;20.00;1.00;;;;;;5050818;28;20482;-85
2022/08/13 04:33:15;;;;;;;5.67;4.00;;;20.00;1.00;;;;;;5051364;28;20428;-84
2022/08/13 04:35:44;;;;;;;4.23;3.83;;;20.00;1.00;;;;;;5046493;28;20863;-82
2022/08/13 04:38:11;;;;;;;9.00;4.07;;;20.00;1.00;;;;;;5050532;28;20454;-85
2022/08/13 04:40:39;;;;;;;6.50;4.10;;;20.00;1.00;;;;;;5051243;28;20849;-85
2022/08/13 04:43:06;;;;;;;4.47;4.07;;;20.00;1.00;;;;;;5051125;28;20426;-84
2022/08/13 04:45:33;;;;;;;4.60;4.20;;;20.10;1.00;;;;;;5056757;28;20464;-85
2022/08/13 04:48:04;;;;;;;13.30;5.20;;;20.10;1.00;;;;;;5050239;28;20555;-85
2022/08/13 04:50:34;;;;;;;7.37;4.33;;;20.10;1.00;;;;;;5051512;28;20488;-84
2022/08/13 04:53:00;;;;;;;10.80;3.90;;;20.20;1.00;;;;;;5051465;28;20481;-87
2022/08/13 04:55:27;;;;;;;7.43;3.90;;;20.20;1.00;;;;;;5051794;28;21177;-85
2022/08/13 04:57:53;;;;;;;8.23;4.10;;;20.20;4.10;;;;;;5049971;28;20443;-83
2022/08/13 05:00:20;;;;;;;5.33;3.73;;;20.20;1.00;;;;;;5058149;28;20451;-84
2022/08/13 05:02:46;;;;;;;5.83;3.97;;;20.30;1.00;;;;;;5050922;28;20513;-84
2022/08/13 05:05:12;;;;;;;8.57;4.30;;;20.40;1.00;;;;;;5053307;28;20483;-84
2022/08/13 05:07:38;;;;;;;12.60;4.77;;;20.40;1.00;;;;;;5050546;28;20189;-83
2022/08/13 05:10:05;;;;;;;5.83;4.00;;;20.40;1.00;;;;;;5050617;28;20475;-84
2022/08/13 05:12:35;;;;;;;5.90;4.30;;;20.40;1.00;;;;;;5051390;28;20441;-84
2022/08/13 05:15:01;;;;;;;4.30;3.90;;;20.50;1.00;;;;;;5054830;28;22286;-85
2022/08/13 05:17:28;;;;;;;4.10;3.70;;;20.50;1.00;;;;;;5052860;28;20482;-84
2022/08/13 05:19:54;;;;;;;7.00;4.13;;;20.50;1.00;;;;;;5052639;28;20780;-85
2022/08/13 05:22:22;;;;;;;5.30;3.90;;;20.60;1.00;;;;;;5051869;28;20441;-86
2022/08/13 05:24:49;;;;;;;6.50;3.87;;;20.60;1.00;;;;;;5050543;28;20701;-88
2022/08/13 05:27:15;;;;;;;3.80;3.50;;;20.70;8.40;;;;;;5049312;28;20543;-85
2022/08/13 05:29:41;;;;;;;7.17;4.20;;;20.90;1.00;;;;;;5052775;28;20521;-84
2022/08/13 05:32:10;;;;;;;7.07;3.63;;;21.20;1.00;;;;;;5050705;28;20520;-86
2022/08/13 05:34:37;;;;;;;4.33;3.40;;;22.50;3.60;;;;;;5059193;28;20208;-86
2022/08/13 05:37:05;;;;;;;4.00;3.13;;;26.30;10.70;;;;;;5052409;28;21727;-87
2022/08/13 05:39:31;;;;;;;4.87;2.37;;;29.90;16.40;;;;;;5053544;28;20440;-88
2022/08/13 05:41:59;;;;;;;7.40;3.33;;;32.70;29.30;;;;;;5054804;28;20438;-87
2022/08/13 05:44:27;;;;;;;5.83;3.70;;;35.00;20.80;;;;;;5051496;28;20658;-88
2022/08/13 05:46:53;;;;;;;3.50;3.03;;;37.00;19.80;;;;;;5055739;28;20468;-87
2022/08/13 05:49:19;;;;;;;3.13;2.60;;;38.80;16.60;;;;;;5054241;28;20519;-87
2022/08/13 05:51:45;;;;;;;7.67;2.73;;;40.30;12.20;;;;;;5065545;28;20205;-87
2022/08/13 05:54:11;;;;;;;5.70;2.60;;;41.60;7.50;;;;;;5064275;28;20519;-87
2022/08/13 05:56:38;;;;;;;5.60;2.73;;;42.70;3.30;;;;;;5056552;28;20209;-87
2022/08/13 06:03:22;;;;;;;4.10;2.13;;;43.80;1.00;;;;;;5069589;28;20485;-88
2022/08/13 06:04:38;;;;;;;3.57;2.50;;;45.80;1.00;;;;;;5059051;28;20889;-88
2022/08/13 06:07:04;;;;;;;4.67;2.23;;;47.20;1.00;;;;;;5059885;28;20486;-88
2022/08/13 06:09:29;;;;;;;2.50;1.80;;;48.80;1.00;;;;;;5066895;28;20205;-87
2022/08/13 06:11:59;;;;;;;3.03;1.83;;;50.80;1.00;;;;;;5069886;28;20180;-88
2022/08/13 06:14:25;;;;;;;6.30;1.73;;;52.40;1.00;;;;;;5065190;28;20180;-88
2022/08/13 06:16:51;;;;;;;4.03;1.83;;;53.60;1.00;;;;;;5057963;28;20200;-89
2022/08/13 06:19:21;;;;;;;3.05;1.52;;;54.80;1.00;;;;;;5063838;28;20249;-89
2022/08/13 06:21:49;;;;;;;4.22;1.73;;;55.70;1.00;;;;;;5067200;28;20208;-89
2022/08/13 06:24:14;;;;;;;2.65;1.38;;;56.30;1.00;;;;;;5064255;28;20231;-89
2022/08/13 06:26:40;;;;;;;4.63;1.67;;;56.90;1.00;;;;;;5059334;28;20606;-89
2022/08/13 06:29:10;;;;;;;3.58;1.95;;;57.40;1.00;;;;;;5052522;28;20185;-89
2022/08/13 06:31:38;;;;;;;3.95;1.75;;;58.00;1.00;;;;;;5054205;28;20193;-90
2022/08/13 06:34:09;;;;;;;2.50;1.83;;;58.60;1.00;;;;;;5067886;28;20222;-90
2022/08/13 06:36:37;;;;;;;3.05;1.40;;;59.40;1.00;;;;;;5062829;28;20203;-90
2022/08/13 06:39:05;;;;;;;2.97;1.42;;;59.40;1.00;;;;;;5064739;28;20180;-90
2022/08/13 06:41:32;;;;;;;2.38;1.70;;;59.80;1.00;;;;;;5062469;28;20595;-89
2022/08/13 06:43:58;;;;;;;3.92;1.48;;;59.70;1.00;;;;;;5063854;28;20193;-89
2022/08/13 06:49:04;;;;;;;2.47;1.50;;;59.70;1.00;;;;;;5094984;22;20224;-83
2022/08/13 06:51:31;;;;;;;8.15;1.55;;;60.30;1.00;;;;;;5070678;28;20178;-83
2022/08/13 06:53:57;;;;;;;2.90;1.50;;;60.50;1.00;;;;;;5070227;28;20234;-85
2022/08/13 06:56:26;;;;;;;4.78;1.98;;;60.80;1.00;;;;;;5069166;28;20184;-85
2022/08/13 06:58:54;;;;;;;3.10;1.55;;;60.90;1.00;;;;;;5080190;28;20623;-83
2022/08/13 07:01:25;;;;;;;1.80;1.65;;;60.80;1.00;;;;;;5065784;28;20217;-83
2022/08/13 07:03:53;;;;;;;1.88;1.45;;;60.60;1.00;;;;;;5077742;28;20176;-81
2022/08/13 07:06:25;;;;;;;3.97;1.60;;;60.10;1.00;;;;;;5070964;28;20181;-83
2022/08/13 07:08:54;;;;;;;2.55;1.73;;;60.10;1.00;;;;;;5083482;28;20711;-83
2022/08/13 07:11:23;;;;;;;11.13;2.00;;;60.30;1.00;;;;;;5075536;28;20192;-83
2022/08/13 07:13:54;;;;;;;20.23;4.70;;;60.30;1.00;;;;;;5069695;28;20177;-83
2022/08/13 07:16:23;;;;;;;10.75;3.15;;;60.20;1.00;;;;;;5068404;28;20642;-84
2022/08/13 07:18:50;;;;;;;5.95;1.98;;;59.50;1.00;;;;;;5072550;28;20338;-81
2022/08/13 07:21:19;;;;;;;3.45;1.30;;;59.50;1.00;;;;;;5068305;28;20238;-82
2022/08/13 07:23:45;;;;;;;3.45;1.55;;;59.70;1.00;;;;;;5071491;28;20180;-83
2022/08/13 07:26:14;;;;;;;2.45;1.77;;;60.40;1.00;;;;;;5070007;28;20172;-84
2022/08/13 07:28:41;;;;;;;3.47;1.90;;;60.80;1.00;;;;;;5071816;28;20211;-81
2022/08/13 07:31:08;;;;;;;3.45;1.73;;;60.80;1.00;;;;;;5075365;28;20238;-84
2022/08/13 07:33:36;;;;;;;2.13;1.52;;;60.70;1.00;;;;;;5069665;28;20585;-83
2022/08/13 07:36:12;;;;;;;1.60;1.17;;;60.40;1.00;;;;;;5072269;28;20600;-83
2022/08/13 07:38:38;;;;;;;3.58;1.77;;;60.40;1.00;;;;;;5068231;28;20198;-83
2022/08/13 07:41:04;;;;;;;4.03;1.73;;;60.50;1.00;;;;;;5068475;28;20437;-81
2022/08/13 07:43:39;;;;;;;2.92;1.55;;;61.00;1.00;;;;;;5070129;28;20204;-84
2022/08/13 07:46:09;;;;;;;3.42;1.50;;;61.10;1.00;;;;;;5070707;28;20172;-83
2022/08/13 07:48:37;;;;;;;2.65;1.27;;;61.30;1.00;;;;;;5070665;28;20212;-83
2022/08/13 07:51:05;;;;;;;1.40;1.30;;;60.30;1.00;;;;;;5073326;28;20188;-83
2022/08/13 07:53:34;;;;;;;3.67;1.50;;;60.20;1.00;;;;;;5052894;28;20219;-83
2022/08/13 07:56:01;;;;;;;4.63;1.20;;;59.90;1.00;;;;;;5052531;28;20306;-84
2022/08/13 07:58:30;;;;;;;2.97;1.50;;;59.40;1.00;;;;;;5072397;28;20254;-85
2022/08/13 08:00:59;;;;;;;6.57;1.40;;;59.80;1.00;;;;;;5070212;28;20196;-83
2022/08/13 08:03:32;;;;;;;2.80;1.27;;;59.60;1.00;;;;;;5071633;28;20188;-84
2022/08/13 08:05:59;;;;;;;5.13;1.40;;;59.50;1.00;;;;;;5067706;28;20200;-83
2022/08/13 08:08:26;;;;;;;2.20;1.60;;;59.30;1.00;;;;;;5075062;28;20207;-82
2022/08/13 08:10:54;;;;;;;5.05;1.50;;;59.40;1.00;;;;;;5073438;28;20712;-84
2022/08/13 08:13:20;;;;;;;4.30;1.50;;;60.00;1.00;;;;;;5069726;28;20184;-85
2022/08/13 08:15:47;;;;;;;4.85;1.38;;;59.90;1.00;;;;;;5068969;28;20176;-84
2022/08/13 08:18:13;;;;;;;5.80;1.85;;;59.80;1.00;;;;;;5069429;28;20711;-84
2022/08/13 08:20:42;;;;;;;5.15;2.33;;;60.10;1.00;;;;;;5073079;28;20610;-83
2022/08/13 08:23:11;;;;;;;7.63;2.13;;;59.90;1.00;;;;;;5069194;28;20231;-84
2022/08/13 08:25:39;;;;;;;7.43;2.50;;;59.10;1.00;;;;;;5051378;28;20184;-84
2022/08/13 08:28:04;;;;;;;6.65;2.10;;;58.50;1.00;;;;;;5065671;28;20207;-86
2022/08/13 08:30:30;;;;;;;3.45;1.63;;;58.70;1.00;;;;;;5071451;28;20577;-84
2022/08/13 08:32:56;;;;;;;4.55;1.88;;;58.80;1.00;;;;;;5069276;28;20226;-84
2022/08/13 08:35:23;;;;;;;4.80;1.88;;;59.10;1.00;;;;;;5071760;28;20229;-84
2022/08/13 08:43:36;;;;;;;1.58;1.20;;;59.00;1.00;;;;;;5071760;28;20229;-85
2022/08/13 08:46:05;;;;;;;1.98;1.33;;;58.10;1.00;;;;;;5064496;28;21801;-84
2022/08/13 08:48:32;;;;;;;1.92;1.25;;;57.20;1.00;;;;;;5068572;28;20212;-85
2022/08/13 08:50:59;;;;;;;3.08;1.58;;;56.90;1.00;;;;;;5048594;28;20240;-86
2022/08/13 08:53:27;;;;;;;6.72;0.98;;;56.50;1.00;;;;;;5071208;28;20192;-84
2022/08/13 08:55:54;;;;;;;1.45;1.17;;;56.40;1.00;;;;;;5055387;28;20606;-83
2022/08/13 08:58:20;;;;;;;5.10;1.10;;;55.90;1.00;;;;;;5069368;28;20195;-84
2022/08/13 09:00:48;;;;;;;2.85;1.27;;;56.10;1.00;;;;;;5072184;28;20782;-85
2022/08/13 09:03:19;;;;;;;1.25;0.98;;;56.70;1.00;;;;;;5068312;28;20252;-85
2022/08/13 09:05:47;;;;;;;3.53;1.30;;;57.00;1.00;;;;;;5066710;28;20188;-85
2022/08/13 09:08:18;;;;;;;2.25;1.17;;;56.70;1.00;;;;;;5047398;28;20589;-85
2022/08/13 09:10:52;;;;;;;2.75;0.90;;;56.20;1.00;;;;;;5063496;28;20180;-86
2022/08/13 09:13:25;;;;;;;2.45;1.13;;;55.90;1.00;;;;;;5086927;28;20270;-84
2022/08/13 09:16:00;;;;;;;2.00;1.10;;;55.70;1.00;;;;;;5057508;28;20188;-85
2022/08/13 09:18:32;;;;;;;6.53;1.60;;;55.20;1.00;;;;;;5057018;28;20199;-85
2022/08/13 09:20:58;;;;;;;2.22;1.38;;;55.60;1.00;;;;;;5079956;28;20257;-85
2022/08/13 09:23:24;;;;;;;3.20;1.08;;;55.40;1.00;;;;;;5052014;28;20187;-84
2022/08/13 09:26:02;;;;;;;4.32;1.20;;;55.70;1.00;;;;;;5057206;28;20261;-85
2022/08/13 09:28:28;;;;;;;1.08;0.93;;;55.70;1.00;;;;;;5072225;28;20815;-83
2022/08/13 09:30:56;;;;;;;3.42;1.00;;;55.80;1.00;;;;;;5077507;28;20187;-85
2022/08/13 09:33:23;;;;;;;3.22;1.52;;;56.20;1.00;;;;;;5075887;28;20271;-85
2022/08/13 09:35:52;;;;;;;2.63;1.00;;;56.00;1.00;;;;;;5075457;28;20181;-83
2022/08/13 09:38:20;;;;;;;1.48;1.08;;;55.60;1.00;;;;;;5054334;28;20209;-82
2022/08/13 09:40:55;;;;;;;4.25;1.45;;;55.50;1.00;;;;;;5052669;28;20196;-85
2022/08/13 09:43:29;;;;;;;1.33;1.10;;;55.50;1.00;;;;;;5051415;28;20206;-84
2022/08/13 09:45:57;;;;;;;2.55;1.00;;;54.90;1.00;;;;;;5071893;28;20184;-83
2022/08/13 09:48:29;;;;;;;4.50;1.13;;;54.40;1.00;;;;;;5052386;28;20216;-83
2022/08/13 09:50:58;;;;;;;2.93;1.20;;;53.70;1.00;;;;;;5069684;28;20594;-82
2022/08/13 09:53:25;;;;;;;2.57;1.30;;;53.20;1.00;;;;;;5067511;28;20181;-84
2022/08/13 09:55:52;;;;;;;3.50;1.10;;;52.90;1.00;;;;;;5054933;28;20180;-85
2022/08/13 09:58:18;;;;;;;1.87;1.10;;;52.60;1.00;;;;;;5048225;28;20212;-84
2022/08/13 10:00:50;;;;;;;3.10;1.03;;;52.40;1.00;;;;;;5057995;28;20212;-87
2022/08/13 10:03:18;;;;;;;1.73;0.90;;;52.00;1.00;;;;;;5054050;28;20191;-84
2022/08/13 10:06:08;;;;;;;3.57;1.30;;;51.70;1.00;;;;;;5056925;28;20438;-85
2022/08/13 10:09:10;;;;;;;5.07;1.10;;;51.50;1.00;;;;;;5117484;23;20559;-85
2022/08/13 10:11:35;;;;;;;2.70;1.10;;;50.80;1.00;;;;;;5073075;28;20461;-84
2022/08/13 10:14:16;;;;;;;2.47;1.07;;;50.30;1.00;;;;;;5073711;28;20435;-84
2022/08/13 10:16:41;;;;;;;3.40;1.27;;;50.10;1.00;;;;;;5069064;28;20210;-86
2022/08/13 10:19:11;;;;;;;2.00;1.20;;;50.10;1.00;;;;;;5069745;28;20434;-85
2022/08/13 10:21:37;;;;;;;3.60;1.53;;;49.90;1.00;;;;;;5059416;28;20443;-85
2022/08/13 10:24:04;;;;;;;4.63;1.27;;;49.40;1.00;;;;;;5058846;28;20449;-86
2022/08/13 10:26:29;;;;;;;4.60;1.40;;;49.20;1.00;;;;;;5075181;28;20448;-84
2022/08/13 10:28:55;;;;;;;2.83;1.40;;;49.30;1.00;;;;;;5079023;28;20503;-84
2022/08/13 10:31:27;;;;;;;5.40;1.20;;;49.20;1.00;;;;;;5074850;28;20190;-85
2022/08/13 10:34:05;;;;;;;8.03;1.30;;;49.00;1.00;;;;;;5074177;28;20267;-85
2022/08/13 10:36:33;;;;;;;3.40;1.20;;;48.90;1.00;;;;;;5072184;28;20430;-85
2022/08/13 10:38:59;;;;;;;3.73;1.13;;;48.70;1.00;;;;;;5057441;28;20892;-84
2022/08/13 10:41:25;;;;;;;2.60;1.10;;;48.10;1.00;;;;;;5056879;28;20485;-84
2022/08/13 10:43:59;;;;;;;1.40;1.10;;;48.10;1.00;;;;;;5056429;28;20176;-85
2022/08/13 10:46:28;;;;;;;2.60;1.60;;;48.10;1.00;;;;;;5057423;28;20175;-83
2022/08/13 10:48:55;;;;;;;1.70;1.13;;;47.90;1.00;;;;;;5078216;28;20449;-84
2022/08/13 10:51:22;;;;;;;6.73;1.70;;;47.70;1.00;;;;;;5053838;28;20435;-84
2022/08/13 10:54:00;;;;;;;8.77;2.40;;;47.80;1.00;;;;;;5058914;28;20502;-84
2022/08/13 10:56:30;;;;;;;8.50;2.07;;;47.70;1.00;;;;;;5058231;28;20439;-85
2022/08/13 10:58:58;;;;;;;6.73;2.23;;;48.10;1.00;;;;;;5070790;28;20461;-85
2022/08/13 11:01:34;;;;;;;7.63;2.10;;;48.20;1.00;;;;;;5056228;28;20489;-85
2022/08/13 11:04:02;;;;;;;5.00;1.77;;;48.20;1.00;;;;;;5078526;28;20430;-84
2022/08/13 11:06:29;;;;;;;5.57;1.73;;;48.50;1.00;;;;;;5075721;28;20426;-84
2022/08/13 11:08:57;;;;;;;2.80;1.30;;;49.00;1.00;;;;;;5057858;28;20470;-85
2022/08/13 11:11:26;;;;;;;4.77;1.60;;;49.10;1.00;;;;;;5057331;28;20439;-85
2022/08/13 11:13:52;;;;;;;4.90;1.40;;;48.90;1.00;;;;;;5074937;28;20491;-86
2022/08/13 11:18:59;;;;;;;4.30;1.50;;;48.00;1.00;;;;;;5081664;28;20188;-87
2022/08/13 11:21:25;;;;;;;4.20;1.10;;;47.20;1.00;;;;;;5076940;28;20463;-85
2022/08/13 11:23:54;;;;;;;2.47;1.30;;;46.50;1.00;;;;;;5058479;28;20911;-85
2022/08/13 11:26:20;;;;;;;1.77;1.40;;;46.00;1.00;;;;;;5081247;28;20434;-86
2022/08/13 11:28:46;;;;;;;3.43;1.23;;;46.20;1.00;;;;;;5080047;28;20805;-85
2022/08/13 11:31:12;;;;;;;9.33;1.63;;;46.50;1.00;;;;;;5057008;28;20454;-86
2022/08/13 11:33:37;;;;;;;5.37;1.80;;;47.00;1.00;;;;;;5075328;28;20196;-86
2022/08/13 11:36:08;;;;;;;2.90;1.47;;;47.10;1.00;;;;;;5074698;28;20220;-87
2022/08/13 11:38:33;;;;;;;2.50;1.30;;;47.50;1.00;;;;;;5074836;28;20212;-85
2022/08/13 11:40:59;;;;;;;1.93;1.27;;;47.60;1.00;;;;;;5078605;28;20493;-87
2022/08/13 11:43:33;;;;;;;5.30;1.77;;;47.50;1.00;;;;;;5077999;28;20200;-84
2022/08/13 11:45:59;;;;;;;3.47;1.37;;;47.20;1.00;;;;;;5063391;28;20186;-86
2022/08/13 11:48:25;;;;;;;2.90;1.40;;;46.60;1.00;;;;;;5078669;28;20543;-84
2022/08/13 11:50:52;;;;;;;5.60;1.57;;;46.30;1.00;;;;;;5057828;28;20246;-85
2022/08/13 11:53:18;;;;;;;4.47;1.67;;;46.10;1.00;;;;;;5054677;28;20220;-85
2022/08/13 11:55:50;;;;;;;5.43;1.67;;;45.80;1.00;;;;;;5073530;28;21033;-86
2022/08/13 11:58:16;;;;;;;2.60;1.20;;;45.70;1.00;;;;;;5052126;28;20466;-86
2022/08/13 12:16:32;;;;;;;5.53;1.13;;;46.40;1.00;;;;;;5270503;23;20495;-85
2022/08/13 12:19:00;;;;;;;6.30;2.37;;;46.30;1.00;;;;;;5037351;28;20459;-85
2022/08/13 12:21:27;;;;;;;2.33;1.40;;;46.40;1.00;;;;;;5033607;28;20480;-85
2022/08/13 12:24:01;;;;;;;3.20;1.30;;;46.20;1.00;;;;;;5035439;28;20434;-85
2022/08/13 12:26:27;;;;;;;5.83;1.40;;;46.10;1.00;;;;;;5038252;28;20432;-85
2022/08/13 12:28:55;;;;;;;2.20;1.30;;;46.30;1.00;;;;;;5037816;28;20448;-85
2022/08/13 12:31:21;;;;;;;2.70;1.20;;;46.50;1.00;;;;;;5033008;28;20190;-85
2022/08/13 12:33:47;;;;;;;2.80;1.27;;;46.50;1.00;;;;;;5038972;28;20441;-86
2022/08/13 12:36:14;;;;;;;2.77;1.30;;;46.60;1.00;;;;;;5034141;28;20269;-86
2022/08/13 12:38:40;;;;;;;2.27;1.27;;;46.50;1.00;;;;;;5036936;28;20210;-85
2022/08/13 12:41:06;;;;;;;2.73;1.20;;;45.90;1.00;;;;;;5039409;28;20807;-86
2022/08/13 12:43:58;;;;;;;2.83;1.43;;;45.50;1.00;;;;;;5038259;28;20185;-85
2022/08/13 12:46:29;;;;;;;2.60;1.57;;;45.00;1.00;;;;;;5038337;28;20482;-85
2022/08/13 13:35:29;;;;;;;1.93;1.17;;;41.70;1.00;;;;;;4945230;28;20547;-82
2022/08/13 13:46:26;;;;;;;;;;;;;;;;;;;;;
2022/08/13 14:12:17;;;;;;;2.80;1.47;;;40.40;1.00;;;;;;5269916;22;20508;-83
2022/08/13 14:15:22;;;;;;;1.33;1.10;;;40.00;1.00;;;;;;5028052;28;20461;-84
2022/08/13 14:32:41;;;;;;;4.27;2.23;;;38.60;1.00;;;;;;5573371;22;20498;-82
2022/08/13 14:35:12;;;;;;;1.47;1.30;;;38.50;1.00;;;;;;5057089;28;20431;-84
2022/08/13 14:37:41;;;;;;;4.00;1.40;;;38.40;1.00;;;;;;5052359;28;20434;-85
2022/08/13 14:40:12;;;;;;;3.40;1.80;;;38.20;1.00;;;;;;5056016;28;20455;-83
2022/08/13 14:42:43;;;;;;;2.77;1.50;;;38.00;1.00;;;;;;5054416;28;20436;-83
2022/08/13 14:47:59;;;;;;;4.23;1.50;;;37.50;1.00;;;;;;5057737;28;20454;-84
2022/08/13 14:50:28;;;;;;;3.00;1.50;;;37.30;1.00;;;;;;5035157;28;20443;-83
2022/08/13 14:52:56;;;;;;;6.77;1.33;;;37.20;1.00;;;;;;5034575;28;20677;-82
2022/08/13 14:55:23;;;;;;;6.23;2.03;;;36.90;1.00;;;;;;5036666;28;20443;-83
2022/08/13 14:57:50;;;;;;;7.15;1.77;;;36.70;1.00;;;;;;5035495;28;20427;-83
2022/08/13 15:00:17;;;;;;;1.70;1.23;;;36.50;1.00;;;;;;5038538;28;20726;-84
2022/08/13 15:02:43;;;;;;;3.13;1.60;;;36.50;1.00;;;;;;5051884;28;20519;-86
2022/08/13 15:05:12;;;;;;;1.80;1.40;;;36.60;1.00;;;;;;5036844;28;20463;-84
2022/08/13 15:07:47;;;;;;;2.27;1.53;;;36.60;1.00;;;;;;5040922;28;21020;-87
2022/08/13 15:10:25;;;;;;;2.73;1.30;;;36.50;1.00;;;;;;5034830;28;20442;-84
2022/08/13 15:12:52;;;;;;;6.77;1.63;;;36.30;1.00;;;;;;5048440;28;20497;-83
2022/08/13 15:15:21;;;;;;;3.53;1.87;;;36.10;1.00;;;;;;5045730;28;20503;-83
2022/08/13 15:17:51;;;;;;;4.73;2.10;;;35.90;1.00;;;;;;5042144;28;20437;-84